createdAt,value
2024-04-16T00:00:15.773Z,476.00
2024-04-16T00:01:15.812Z,474.00
2024-04-16T00:02:15.789Z,476.00
2024-04-16T00:03:15.816Z,478.00
2024-04-16T00:04:15.871Z,480.00
2024-04-16T00:05:15.941Z,480.00
2024-04-16T00:06:15.820Z,478.00
2024-04-16T00:07:15.866Z,478.00
2024-04-16T00:08:15.853Z,476.00
2024-04-16T00:09:15.883Z,478.00
2024-04-16T00:10:15.936Z,479.00
2024-04-16T00:11:15.893Z,479.00
2024-04-16T00:12:15.897Z,479.00
2024-04-16T00:13:15.960Z,480.00
2024-04-16T00:14:21.070Z,484.00
2024-04-16T00:15:15.924Z,486.00
2024-04-16T00:16:15.928Z,486.00
2024-04-16T00:17:15.948Z,483.00
2024-04-16T00:18:15.977Z,478.00
2024-04-16T00:19:16.049Z,476.00
2024-04-16T00:20:22.550Z,474.00
2024-04-16T00:21:16.023Z,472.00
2024-04-16T00:22:16.128Z,474.00
2024-04-16T00:23:30.543Z,477.00
2024-04-16T00:24:16.205Z,477.00
2024-04-16T00:25:16.265Z,479.00
2024-04-16T00:26:52.078Z,479.00
2024-04-16T00:27:16.325Z,480.00
2024-04-16T00:28:16.412Z,482.00
2024-04-16T00:29:16.375Z,479.00
2024-04-16T00:30:16.344Z,480.00
2024-04-16T00:31:16.377Z,480.00
2024-04-16T00:32:16.368Z,480.00
2024-04-16T00:33:16.382Z,478.00
2024-04-16T00:34:16.511Z,475.00
2024-04-16T00:35:16.365Z,474.00
2024-04-16T00:36:16.387Z,476.00
2024-04-16T00:37:16.399Z,479.00
2024-04-16T00:38:16.400Z,479.00
2024-04-16T00:39:16.401Z,481.00
2024-04-16T00:40:16.468Z,481.00
2024-04-16T00:41:16.430Z,478.00
2024-04-16T00:42:31.055Z,479.00
2024-04-16T00:43:16.494Z,478.00
2024-04-16T00:44:16.456Z,476.00
2024-04-16T00:45:23.070Z,474.00
2024-04-16T00:46:16.453Z,473.00
2024-04-16T00:47:16.491Z,467.00
2024-04-16T00:48:23.109Z,468.00
2024-04-16T00:49:16.483Z,470.00
2024-04-16T00:50:16.447Z,477.00
2024-04-16T00:51:37.449Z,476.00
2024-04-16T00:52:16.469Z,477.00
2024-04-16T00:53:16.473Z,472.00
2024-04-16T00:54:16.495Z,470.00
2024-04-16T00:55:16.586Z,472.00
2024-04-16T00:56:16.472Z,473.00
2024-04-16T00:57:16.495Z,471.00
2024-04-16T00:58:16.502Z,469.00
2024-04-16T00:59:16.507Z,470.00
2024-04-16T01:00:16.493Z,473.00
2024-04-16T01:01:16.613Z,473.00
2024-04-16T01:02:16.505Z,474.00
2024-04-16T01:03:16.570Z,474.00
2024-04-16T01:04:16.587Z,473.00
2024-04-16T01:05:16.523Z,475.00
2024-04-16T01:06:16.526Z,475.00
2024-04-16T01:07:23.141Z,474.00
2024-04-16T01:08:16.528Z,474.00
2024-04-16T01:09:16.537Z,475.00
2024-04-16T01:10:24.087Z,474.00
2024-04-16T01:11:16.570Z,478.00
2024-04-16T01:12:16.549Z,476.00
2024-04-16T01:13:31.141Z,477.00
2024-04-16T01:14:16.794Z,478.00
2024-04-16T01:15:16.874Z,476.00
2024-04-16T01:16:31.656Z,476.00
2024-04-16T01:17:16.961Z,475.00
2024-04-16T01:18:17.067Z,474.00
2024-04-16T01:19:45.573Z,473.00
2024-04-16T01:20:16.942Z,469.00
2024-04-16T01:21:16.955Z,468.00
2024-04-16T01:22:16.991Z,468.00
2024-04-16T01:23:16.966Z,469.00
2024-04-16T01:24:17.003Z,469.00
2024-04-16T01:25:17.029Z,466.00
2024-04-16T01:26:17.001Z,466.00
2024-04-16T01:27:17.010Z,466.00
2024-04-16T01:28:17.022Z,468.00
2024-04-16T01:29:17.016Z,470.00
2024-04-16T01:30:17.027Z,472.00
2024-04-16T01:31:17.049Z,469.00
2024-04-16T01:32:17.092Z,470.00
2024-04-16T01:33:17.079Z,472.00
2024-04-16T01:34:17.093Z,471.00
2024-04-16T01:35:24.587Z,468.00
2024-04-16T01:36:17.079Z,470.00
2024-04-16T01:37:17.116Z,469.00
2024-04-16T01:38:24.088Z,469.00
2024-04-16T01:39:17.109Z,470.00
2024-04-16T01:40:17.249Z,470.00
2024-04-16T01:41:17.123Z,468.00
2024-04-16T01:42:17.131Z,466.00
2024-04-16T01:43:17.169Z,466.00
2024-04-16T01:44:32.108Z,465.00
2024-04-16T01:45:17.142Z,465.00
2024-04-16T01:46:17.180Z,465.00
2024-04-16T01:47:17.167Z,464.00
2024-04-16T01:48:17.191Z,466.00
2024-04-16T01:49:17.195Z,467.00
2024-04-16T01:50:17.206Z,467.00
2024-04-16T01:51:17.191Z,467.00
2024-04-16T01:52:17.255Z,469.00
2024-04-16T01:53:17.219Z,469.00
2024-04-16T01:54:17.222Z,469.00
2024-04-16T01:55:17.266Z,470.00
2024-04-16T01:56:17.243Z,472.00
2024-04-16T01:57:17.227Z,472.00
2024-04-16T01:58:17.293Z,472.00
2024-04-16T01:59:17.247Z,472.00
2024-04-16T02:00:17.249Z,470.00
2024-04-16T02:01:17.313Z,469.00
2024-04-16T02:02:17.260Z,471.00
2024-04-16T02:03:31.595Z,473.00
2024-04-16T02:04:17.350Z,472.00
2024-04-16T02:05:17.281Z,470.00
2024-04-16T02:06:32.096Z,469.00
2024-04-16T02:07:17.364Z,470.00
2024-04-16T02:08:17.349Z,470.00
2024-04-16T02:09:35.596Z,472.00
2024-04-16T02:10:17.470Z,471.00
2024-04-16T02:11:17.378Z,473.00
2024-04-16T02:12:17.394Z,474.00
2024-04-16T02:13:17.410Z,474.00
2024-04-16T02:14:17.401Z,470.00
2024-04-16T02:15:17.403Z,470.00
2024-04-16T02:16:17.464Z,470.00
2024-04-16T02:17:17.429Z,471.00
2024-04-16T02:18:17.508Z,469.00
2024-04-16T02:19:17.501Z,470.00
2024-04-16T02:20:17.473Z,470.00
2024-04-16T02:21:17.476Z,470.00
2024-04-16T02:22:17.498Z,467.00
2024-04-16T02:23:17.506Z,467.00
2024-04-16T02:24:17.523Z,469.00
2024-04-16T02:25:17.526Z,468.00
2024-04-16T02:26:17.531Z,467.00
2024-04-16T02:27:17.557Z,470.00
2024-04-16T02:28:17.625Z,471.00
2024-04-16T02:29:17.574Z,469.00
2024-04-16T02:30:17.571Z,469.00
2024-04-16T02:31:17.638Z,471.00
2024-04-16T02:32:17.714Z,472.00
2024-04-16T02:33:17.615Z,469.00
2024-04-16T02:34:32.732Z,465.00
2024-04-16T02:35:17.621Z,462.00
2024-04-16T02:36:17.630Z,458.00
2024-04-16T02:37:32.624Z,457.00
2024-04-16T02:38:17.642Z,455.00
2024-04-16T02:39:17.680Z,456.00
2024-04-16T02:40:17.687Z,457.00
2024-04-16T02:41:17.680Z,457.00
2024-04-16T02:42:17.696Z,459.00
2024-04-16T02:43:17.730Z,461.00
2024-04-16T02:44:17.746Z,460.00
2024-04-16T02:45:17.752Z,460.00
2024-04-16T02:46:17.771Z,457.00
2024-04-16T02:47:17.802Z,456.00
2024-04-16T02:48:17.809Z,455.00
2024-04-16T02:49:17.835Z,456.00
2024-04-16T02:50:17.800Z,455.00
2024-04-16T02:51:17.825Z,455.00
2024-04-16T02:52:17.888Z,455.00
2024-04-16T02:53:17.836Z,454.00
2024-04-16T02:54:17.861Z,457.00
2024-04-16T02:55:17.889Z,459.00
2024-04-16T02:56:24.613Z,459.00
2024-04-16T02:57:17.883Z,457.00
2024-04-16T02:58:17.938Z,456.00
2024-04-16T02:59:38.920Z,457.00
2024-04-16T03:00:17.914Z,457.00
2024-04-16T03:01:18.035Z,459.00
2024-04-16T03:02:38.989Z,457.00
2024-04-16T03:03:17.994Z,456.00
2024-04-16T03:04:17.984Z,457.00
2024-04-16T03:05:19.185Z,455.00
2024-04-16T03:06:18.992Z,453.00
2024-04-16T03:07:18.021Z,454.00
2024-04-16T03:08:18.014Z,456.00
2024-04-16T03:09:18.053Z,458.00
2024-04-16T03:10:18.295Z,456.00
2024-04-16T03:11:18.047Z,458.00
2024-04-16T03:12:18.058Z,462.00
2024-04-16T03:13:18.158Z,460.00
2024-04-16T03:14:18.073Z,460.00
2024-04-16T03:15:18.159Z,461.00
2024-04-16T03:16:18.107Z,461.00
2024-04-16T03:17:18.137Z,464.00
2024-04-16T03:18:18.130Z,465.00
2024-04-16T03:19:18.156Z,461.00
2024-04-16T03:20:18.136Z,461.00
2024-04-16T03:21:24.207Z,463.00
2024-04-16T03:22:18.158Z,464.00
2024-04-16T03:23:18.244Z,466.00
2024-04-16T03:24:33.118Z,463.00
2024-04-16T03:25:18.208Z,460.00
2024-04-16T03:26:18.170Z,458.00
2024-04-16T03:27:33.123Z,458.00
2024-04-16T03:28:18.183Z,458.00
2024-04-16T03:29:18.185Z,459.00
2024-04-16T03:30:39.232Z,460.00
2024-04-16T03:31:18.257Z,461.00
2024-04-16T03:32:18.334Z,463.00
2024-04-16T03:33:18.221Z,465.00
2024-04-16T03:34:18.280Z,462.00
2024-04-16T03:35:18.239Z,461.00
2024-04-16T03:36:18.247Z,462.00
2024-04-16T03:37:18.270Z,463.00
2024-04-16T03:38:18.262Z,462.00
2024-04-16T03:39:18.247Z,460.00
2024-04-16T03:40:18.376Z,460.00
2024-04-16T03:41:18.258Z,460.00
2024-04-16T03:42:18.268Z,458.00
2024-04-16T03:43:18.300Z,459.00
2024-04-16T03:44:18.269Z,456.00
2024-04-16T03:45:18.282Z,455.00
2024-04-16T03:46:18.310Z,458.00
2024-04-16T03:47:18.322Z,458.00
2024-04-16T03:48:18.407Z,458.00
2024-04-16T03:49:33.243Z,457.00
2024-04-16T03:50:18.302Z,458.00
2024-04-16T03:51:18.301Z,456.00
2024-04-16T03:52:39.334Z,455.00
2024-04-16T03:53:18.322Z,453.00
2024-04-16T03:54:18.315Z,451.00
2024-04-16T03:55:42.745Z,452.00
2024-04-16T03:56:18.401Z,453.00
2024-04-16T03:57:18.328Z,454.00
2024-04-16T03:58:18.374Z,452.00
2024-04-16T03:59:18.384Z,451.00
2024-04-16T04:00:18.430Z,448.00
2024-04-16T04:01:18.365Z,448.00
2024-04-16T04:02:18.358Z,450.00
2024-04-16T04:03:18.385Z,452.00
2024-04-16T04:04:18.447Z,452.00
2024-04-16T04:05:18.482Z,452.00
2024-04-16T04:06:18.438Z,453.00
2024-04-16T04:07:18.444Z,456.00
2024-04-16T04:08:18.435Z,458.00
2024-04-16T04:09:18.493Z,457.00
2024-04-16T04:10:18.564Z,456.00
2024-04-16T04:11:18.680Z,457.00
2024-04-16T04:12:18.441Z,458.00
2024-04-16T04:13:18.577Z,457.00
2024-04-16T04:14:18.450Z,457.00
2024-04-16T04:15:18.464Z,456.00
2024-04-16T04:16:18.531Z,458.00
2024-04-16T04:17:39.558Z,460.00
2024-04-16T04:18:18.519Z,459.00
2024-04-16T04:19:18.506Z,459.00
2024-04-16T04:20:32.651Z,459.00
2024-04-16T04:21:18.589Z,458.00
2024-04-16T04:22:18.535Z,459.00
2024-04-16T04:23:46.155Z,460.00
2024-04-16T04:24:27.532Z,463.00
2024-04-16T04:25:19.565Z,464.00
2024-04-16T04:26:18.537Z,464.00
2024-04-16T04:27:18.542Z,462.00
2024-04-16T04:28:18.572Z,460.00
2024-04-16T04:29:18.647Z,460.00
2024-04-16T04:30:25.874Z,474.00
2024-04-16T04:31:25.956Z,469.00
2024-04-16T04:32:26.064Z,466.00
2024-04-16T04:33:25.995Z,465.00
2024-04-16T04:34:25.970Z,465.00
2024-04-16T04:35:25.989Z,463.00
2024-04-16T04:36:26.046Z,462.00
2024-04-16T04:37:26.162Z,460.00
2024-04-16T04:38:26.059Z,460.00
2024-04-16T04:39:26.079Z,461.00
2024-04-16T04:40:26.115Z,461.00
2024-04-16T04:41:28.265Z,462.00
2024-04-16T04:42:26.152Z,463.00
2024-04-16T04:43:26.210Z,465.00
2024-04-16T04:44:26.226Z,465.00
2024-04-16T04:45:34.054Z,465.00
2024-04-16T04:46:26.373Z,465.00
2024-04-16T04:47:26.366Z,465.00
2024-04-16T04:48:41.097Z,466.00
2024-04-16T04:49:26.364Z,466.00
2024-04-16T04:50:26.372Z,466.00
2024-04-16T04:51:47.391Z,466.00
2024-04-16T04:52:26.436Z,467.00
2024-04-16T04:53:26.498Z,465.00
2024-04-16T04:54:26.438Z,464.00
2024-04-16T04:55:26.471Z,463.00
2024-04-16T04:56:26.488Z,463.00
2024-04-16T04:57:26.493Z,463.00
2024-04-16T04:58:26.539Z,462.00
2024-04-16T04:59:26.530Z,463.00
2024-04-16T05:00:26.553Z,464.00
2024-04-16T05:01:26.730Z,467.00
2024-04-16T05:02:26.615Z,469.00
2024-04-16T05:03:26.607Z,469.00
2024-04-16T05:04:26.633Z,468.00
2024-04-16T05:05:27.053Z,470.00
2024-04-16T05:06:26.639Z,471.00
2024-04-16T05:07:29.552Z,473.00
2024-04-16T05:08:26.670Z,476.00
2024-04-16T05:09:26.688Z,478.00
2024-04-16T05:10:26.881Z,477.00
2024-04-16T05:11:26.792Z,478.00
2024-04-16T05:12:26.743Z,478.00
2024-04-16T05:13:41.637Z,476.00
2024-04-16T05:14:26.785Z,474.00
2024-04-16T05:15:26.805Z,474.00
2024-04-16T05:16:33.617Z,471.00
2024-04-16T05:17:26.923Z,471.00
2024-04-16T05:18:26.996Z,468.00
2024-04-16T05:19:49.576Z,467.00
2024-04-16T05:20:26.913Z,466.00
2024-04-16T05:21:26.920Z,473.00
2024-04-16T05:22:26.965Z,475.00
2024-04-16T05:23:26.967Z,475.00
2024-04-16T05:24:26.994Z,475.00
2024-04-16T05:25:27.081Z,477.00
2024-04-16T05:26:27.032Z,475.00
2024-04-16T05:27:27.136Z,479.00
2024-04-16T05:28:27.235Z,479.00
2024-04-16T05:29:27.113Z,664.00
2024-04-16T05:30:27.591Z,531.00
2024-04-16T05:31:27.148Z,525.00
2024-04-16T05:32:27.184Z,531.00
2024-04-16T05:33:27.177Z,578.00
2024-04-16T05:34:27.210Z,578.00
2024-04-16T05:35:27.569Z,602.00
2024-04-16T05:36:27.223Z,609.00
2024-04-16T05:37:27.259Z,610.00
2024-04-16T05:38:34.175Z,620.00
2024-04-16T05:39:27.262Z,636.00
2024-04-16T05:40:27.607Z,688.00
2024-04-16T05:41:42.056Z,715.00
2024-04-16T05:42:27.311Z,716.00
2024-04-16T05:43:27.439Z,669.00
2024-04-16T05:44:42.068Z,660.00
2024-04-16T05:45:27.341Z,649.00
2024-04-16T05:46:27.382Z,645.00
2024-04-16T05:47:27.437Z,644.00
2024-04-16T05:48:28.545Z,637.00
2024-04-16T05:49:27.441Z,630.00
2024-04-16T05:50:27.430Z,626.00
2024-04-16T05:51:27.434Z,626.00
2024-04-16T05:52:27.583Z,627.00
2024-04-16T05:53:27.475Z,634.00
2024-04-16T05:54:28.566Z,637.00
2024-04-16T05:55:27.529Z,648.00
2024-04-16T05:56:27.584Z,726.00
2024-04-16T05:57:27.653Z,735.00
2024-04-16T05:58:27.771Z,724.00
2024-04-16T05:59:27.817Z,721.00
2024-04-16T06:00:27.986Z,728.00
2024-04-16T06:01:27.984Z,734.00
2024-04-16T06:02:28.104Z,739.00
2024-04-16T06:03:28.128Z,746.00
2024-04-16T06:04:28.215Z,763.00
2024-04-16T06:05:28.294Z,771.00
2024-04-16T06:06:43.075Z,779.00
2024-04-16T06:07:28.373Z,776.00
2024-04-16T06:08:28.459Z,772.00
2024-04-16T06:09:52.134Z,769.00
2024-04-16T06:10:28.458Z,769.00
2024-04-16T06:11:28.398Z,755.00
2024-04-16T06:12:49.416Z,773.00
2024-04-16T06:13:28.460Z,767.00
2024-04-16T06:14:28.424Z,772.00
2024-04-16T06:15:28.465Z,773.00
2024-04-16T06:16:28.672Z,777.00
2024-04-16T06:17:28.483Z,785.00
2024-04-16T06:18:28.489Z,809.00
2024-04-16T06:19:28.506Z,810.00
2024-04-16T06:20:28.501Z,789.00
2024-04-16T06:21:28.519Z,817.00
2024-04-16T06:22:28.551Z,813.00
2024-04-16T06:23:28.528Z,814.00
2024-04-16T06:24:28.543Z,822.00
2024-04-16T06:25:28.694Z,837.00
2024-04-16T06:26:28.574Z,840.00
2024-04-16T06:27:28.571Z,826.00
2024-04-16T06:28:28.612Z,818.00
2024-04-16T06:29:28.593Z,835.00
2024-04-16T06:30:29.086Z,849.00
2024-04-16T06:31:31.250Z,876.00
2024-04-16T06:32:28.793Z,917.00
2024-04-16T06:33:28.731Z,1000.00
2024-04-16T06:34:29.601Z,1020.00
2024-04-16T06:35:29.085Z,1036.00
2024-04-16T06:36:28.649Z,1048.00
2024-04-16T06:37:43.612Z,1066.00
2024-04-16T06:38:28.649Z,1073.00
2024-04-16T06:39:28.635Z,1092.00
2024-04-16T06:41:04.127Z,1110.00
2024-04-16T06:41:28.704Z,1142.00
2024-04-16T06:42:28.732Z,1161.00
2024-04-16T06:43:28.796Z,1163.00
2024-04-16T06:44:28.803Z,1165.00
2024-04-16T06:45:28.817Z,1177.00
2024-04-16T06:46:28.869Z,1189.00
2024-04-16T06:47:28.870Z,1209.00
2024-04-16T06:48:28.965Z,1223.00
2024-04-16T06:49:29.051Z,1226.00
2024-04-16T06:50:29.124Z,1224.00
2024-04-16T06:51:28.957Z,1238.00
2024-04-16T06:52:29.033Z,1245.00
2024-04-16T06:53:29.002Z,1247.00
2024-04-16T06:54:29.027Z,1246.00
2024-04-16T06:55:29.062Z,1272.00
2024-04-16T06:56:32.092Z,1290.00
2024-04-16T06:57:29.167Z,1327.00
2024-04-16T06:58:29.117Z,1360.00
2024-04-16T06:59:29.094Z,1357.00
2024-04-16T07:00:29.143Z,1357.00
2024-04-16T07:01:29.144Z,1358.00
2024-04-16T07:02:44.134Z,1361.00
2024-04-16T07:03:29.158Z,1357.00
2024-04-16T07:04:29.121Z,1360.00
2024-04-16T07:05:40.103Z,1379.00
2024-04-16T07:06:29.115Z,1379.00
2024-04-16T07:07:29.123Z,1382.00
2024-04-16T07:08:29.115Z,1387.00
2024-04-16T07:09:29.108Z,1382.00
2024-04-16T07:10:29.147Z,1395.00
2024-04-16T07:11:29.144Z,1400.00
2024-04-16T07:12:29.116Z,1412.00
2024-04-16T07:13:29.236Z,1413.00
2024-04-16T07:14:29.129Z,1411.00
2024-04-16T07:15:29.146Z,1419.00
2024-04-16T07:16:29.279Z,1433.00
2024-04-16T07:17:29.180Z,1437.00
2024-04-16T07:18:29.162Z,1441.00
2024-04-16T07:19:29.196Z,1443.00
2024-04-16T07:20:29.158Z,1441.00
2024-04-16T07:21:29.162Z,1443.00
2024-04-16T07:22:29.259Z,1444.00
2024-04-16T07:23:29.165Z,1452.00
2024-04-16T07:24:45.621Z,1459.00
2024-04-16T07:25:29.178Z,1465.00
2024-04-16T07:26:29.608Z,1469.00
2024-04-16T07:27:44.126Z,1468.00
2024-04-16T07:28:29.177Z,1117.00
2024-04-16T07:29:29.163Z,978.00
2024-04-16T07:30:54.805Z,866.00
2024-04-16T07:31:38.497Z,938.00
2024-04-16T07:32:30.351Z,983.00
2024-04-16T07:33:32.217Z,1009.00
2024-04-16T07:34:29.249Z,1061.00
2024-04-16T07:35:29.633Z,1101.00
2024-04-16T07:36:29.266Z,1109.00
2024-04-16T07:37:29.333Z,1115.00
2024-04-16T07:38:29.384Z,1164.00
2024-04-16T07:39:29.313Z,1193.00
2024-04-16T07:40:29.650Z,1210.00
2024-04-16T07:41:29.330Z,1217.00
2024-04-16T07:42:29.340Z,1220.00
2024-04-16T07:43:29.365Z,1221.00
2024-04-16T07:44:29.370Z,1256.00
2024-04-16T07:45:29.386Z,1276.00
2024-04-16T07:46:32.137Z,1278.00
2024-04-16T07:47:29.495Z,1285.00
2024-04-16T07:48:29.387Z,1285.00
2024-04-16T07:49:29.441Z,1275.00
2024-04-16T07:50:29.401Z,1294.00
2024-04-16T07:51:29.400Z,1310.00
2024-04-16T07:52:50.409Z,1321.00
2024-04-16T07:53:29.405Z,1335.00
2024-04-16T07:54:29.415Z,1339.00
2024-04-16T07:55:50.476Z,1249.00
2024-04-16T07:56:29.422Z,1225.00
2024-04-16T07:57:29.441Z,1017.00
2024-04-16T07:58:52.616Z,986.00
2024-04-16T07:59:29.457Z,950.00
2024-04-16T08:00:29.474Z,945.00
2024-04-16T08:01:29.514Z,915.00
2024-04-16T08:02:29.520Z,905.00
2024-04-16T08:03:29.498Z,1014.00
2024-04-16T08:04:29.594Z,1112.00
2024-04-16T08:05:29.486Z,1154.00
2024-04-16T08:06:29.524Z,1180.00
2024-04-16T08:07:29.604Z,1175.00
2024-04-16T08:08:35.735Z,1172.00
2024-04-16T08:09:30.629Z,1170.00
2024-04-16T08:10:29.668Z,1169.00
2024-04-16T08:11:29.698Z,1179.00
2024-04-16T08:12:29.646Z,1199.00
2024-04-16T08:13:29.700Z,1246.00
2024-04-16T08:14:29.653Z,1253.00
2024-04-16T08:15:29.660Z,1260.00
2024-04-16T08:16:29.753Z,1265.00
2024-04-16T08:17:29.775Z,1267.00
2024-04-16T08:18:29.741Z,1265.00
2024-04-16T08:19:29.749Z,1066.00
2024-04-16T08:20:48.134Z,1064.00
2024-04-16T08:21:29.735Z,983.00
2024-04-16T08:22:29.723Z,1007.00
2024-04-16T08:23:44.626Z,970.00
2024-04-16T08:24:29.728Z,960.00
2024-04-16T08:25:29.770Z,834.00
2024-04-16T08:27:05.638Z,694.00
2024-04-16T08:27:29.755Z,717.00
2024-04-16T08:28:29.823Z,744.00
2024-04-16T08:29:29.813Z,778.00
2024-04-16T08:30:30.137Z,788.00
2024-04-16T08:31:29.924Z,797.00
2024-04-16T08:32:29.968Z,814.00
2024-04-16T08:33:30.082Z,829.00
2024-04-16T08:34:30.033Z,834.00
2024-04-16T08:35:30.017Z,830.00
2024-04-16T08:36:29.965Z,811.00
2024-04-16T08:37:30.058Z,791.00
2024-04-16T08:38:30.151Z,819.00
2024-04-16T08:39:30.157Z,828.00
2024-04-16T08:40:30.213Z,831.00
2024-04-16T08:41:30.136Z,846.00
2024-04-16T08:42:32.636Z,868.00
2024-04-16T08:43:30.401Z,914.00
2024-04-16T08:44:30.513Z,935.00
2024-04-16T08:45:51.459Z,940.00
2024-04-16T08:46:30.524Z,977.00
2024-04-16T08:47:30.518Z,1035.00
2024-04-16T08:48:30.510Z,1055.00
2024-04-16T08:49:30.549Z,1059.00
2024-04-16T08:50:30.563Z,1066.00
2024-04-16T08:51:51.564Z,1070.00
2024-04-16T08:52:30.615Z,1099.00
2024-04-16T08:53:30.572Z,1101.00
2024-04-16T08:54:30.573Z,1109.00
2024-04-16T08:55:30.643Z,1120.00
2024-04-16T08:56:30.590Z,1122.00
2024-04-16T08:57:30.591Z,1136.00
2024-04-16T08:58:30.669Z,1142.00
2024-04-16T08:59:33.838Z,1152.00
2024-04-16T09:00:30.672Z,1158.00
2024-04-16T09:01:37.909Z,1229.00
2024-04-16T09:02:37.892Z,1222.00
2024-04-16T09:03:37.854Z,1226.00
2024-04-16T09:04:38.059Z,1228.00
2024-04-16T09:05:37.847Z,1235.00
2024-04-16T09:06:37.817Z,1307.00
2024-04-16T09:07:37.882Z,1310.00
2024-04-16T09:08:37.809Z,1300.00
2024-04-16T09:09:37.903Z,1293.00
2024-04-16T09:10:38.137Z,1292.00
2024-04-16T09:11:38.056Z,1288.00
2024-04-16T09:12:37.762Z,1285.00
2024-04-16T09:13:40.541Z,1288.00
2024-04-16T09:14:37.742Z,1297.00
2024-04-16T09:15:37.994Z,1302.00
2024-04-16T09:16:58.817Z,1311.00
2024-04-16T09:17:37.828Z,1320.00
2024-04-16T09:18:37.747Z,1322.00
2024-04-16T09:19:52.592Z,1327.00
2024-04-16T09:20:37.681Z,1329.00
2024-04-16T09:21:37.671Z,1350.00
2024-04-16T09:23:04.963Z,1389.00
2024-04-16T09:23:38.661Z,1390.00
2024-04-16T09:24:37.645Z,1394.00
2024-04-16T09:25:37.681Z,1378.00
2024-04-16T09:26:37.620Z,1359.00
2024-04-16T09:27:37.602Z,1357.00
2024-04-16T09:28:38.012Z,1351.00
2024-04-16T09:29:37.599Z,1356.00
2024-04-16T09:30:38.501Z,1365.00
2024-04-16T09:31:37.666Z,1266.00
2024-04-16T09:32:37.568Z,1294.00
2024-04-16T09:33:39.270Z,1360.00
2024-04-16T09:34:37.532Z,1355.00
2024-04-16T09:35:37.987Z,1361.00
2024-04-16T09:36:37.496Z,1369.00
2024-04-16T09:37:40.707Z,1372.00
2024-04-16T09:38:43.997Z,1363.00
2024-04-16T09:39:37.611Z,1358.00
2024-04-16T09:40:37.689Z,1348.00
2024-04-16T09:41:51.988Z,1327.00
2024-04-16T09:42:37.750Z,1295.00
2024-04-16T09:43:37.643Z,1278.00
2024-04-16T09:44:58.675Z,1256.00
2024-04-16T09:45:37.968Z,1248.00
2024-04-16T09:46:37.759Z,1244.00
2024-04-16T09:48:00.765Z,1231.00
2024-04-16T09:48:37.567Z,1153.00
2024-04-16T09:49:45.174Z,1137.00
2024-04-16T09:50:46.983Z,1141.00
2024-04-16T09:51:38.563Z,1113.00
2024-04-16T09:52:37.599Z,1120.00
2024-04-16T09:53:37.548Z,1110.00
2024-04-16T09:54:37.525Z,1092.00
2024-04-16T09:55:38.091Z,1058.00
2024-04-16T09:56:37.506Z,1050.00
2024-04-16T09:57:37.509Z,988.00
2024-04-16T09:58:37.517Z,973.00
2024-04-16T09:59:37.478Z,986.00
2024-04-16T10:00:38.306Z,934.00
2024-04-16T10:01:37.480Z,875.00
2024-04-16T10:02:37.468Z,877.00
2024-04-16T10:03:37.570Z,867.00
2024-04-16T10:04:37.426Z,860.00
2024-04-16T10:05:37.378Z,864.00
2024-04-16T10:06:40.502Z,854.00
2024-04-16T10:07:37.435Z,845.00
2024-04-16T10:08:37.347Z,842.00
2024-04-16T10:09:58.329Z,830.00
2024-04-16T10:10:37.396Z,802.00
2024-04-16T10:11:37.407Z,765.00
2024-04-16T10:12:58.283Z,755.00
2024-04-16T10:13:37.336Z,743.00
2024-04-16T10:14:37.297Z,737.00
2024-04-16T10:16:05.011Z,734.00
2024-04-16T10:16:37.283Z,720.00
2024-04-16T10:17:37.262Z,697.00
2024-04-16T10:18:37.228Z,696.00
2024-04-16T10:19:38.105Z,695.00
2024-04-16T10:20:37.232Z,685.00
2024-04-16T10:21:37.207Z,682.00
2024-04-16T10:22:44.636Z,675.00
2024-04-16T10:23:38.188Z,672.00
2024-04-16T10:24:37.188Z,669.00
2024-04-16T10:25:37.287Z,662.00
2024-04-16T10:26:37.180Z,658.00
2024-04-16T10:27:37.156Z,653.00
2024-04-16T10:28:37.235Z,646.00
2024-04-16T10:29:37.162Z,641.00
2024-04-16T10:30:37.162Z,638.00
2024-04-16T10:31:37.538Z,634.00
2024-04-16T10:32:37.177Z,626.00
2024-04-16T10:33:37.445Z,616.00
2024-04-16T10:34:53.526Z,607.00
2024-04-16T10:35:37.122Z,593.00
2024-04-16T10:36:37.176Z,595.00
2024-04-16T10:37:52.086Z,594.00
2024-04-16T10:38:37.100Z,593.00
2024-04-16T10:39:37.139Z,591.00
2024-04-16T10:41:00.511Z,591.00
2024-04-16T10:41:37.125Z,596.00
2024-04-16T10:42:37.154Z,591.00
2024-04-16T10:43:37.264Z,588.00
2024-04-16T10:44:37.218Z,585.00
2024-04-16T10:45:37.246Z,582.00
2024-04-16T10:46:37.417Z,578.00
2024-04-16T10:47:37.319Z,576.00
2024-04-16T10:48:37.337Z,575.00
2024-04-16T10:49:37.405Z,574.00
2024-04-16T10:50:37.405Z,576.00
2024-04-16T10:51:37.440Z,575.00
2024-04-16T10:52:37.585Z,569.00
2024-04-16T10:53:37.522Z,569.00
2024-04-16T10:54:37.543Z,571.00
2024-04-16T10:55:37.661Z,568.00
2024-04-16T10:56:37.626Z,566.00
2024-04-16T10:57:37.654Z,563.00
2024-04-16T10:58:37.753Z,560.00
2024-04-16T10:59:37.723Z,558.00
2024-04-16T11:00:37.796Z,555.00
2024-04-16T11:01:37.856Z,551.00
2024-04-16T11:02:52.040Z,548.00
2024-04-16T11:03:37.953Z,552.00
2024-04-16T11:04:37.896Z,557.00
2024-04-16T11:06:05.522Z,551.00
2024-04-16T11:06:37.807Z,551.00
2024-04-16T11:07:37.926Z,552.00
2024-04-16T11:08:37.819Z,652.00
2024-04-16T11:09:37.786Z,621.00
2024-04-16T11:10:38.082Z,608.00
2024-04-16T11:11:37.838Z,602.00
2024-04-16T11:12:37.782Z,599.00
2024-04-16T11:13:37.842Z,664.00
2024-04-16T11:14:37.769Z,628.00
2024-04-16T11:15:38.038Z,618.00
2024-04-16T11:16:37.815Z,618.00
2024-04-16T11:17:37.862Z,611.00
2024-04-16T11:18:37.788Z,606.00
2024-04-16T11:19:37.805Z,607.00
2024-04-16T11:20:37.759Z,605.00
2024-04-16T11:21:37.771Z,600.00
2024-04-16T11:22:37.762Z,599.00
2024-04-16T11:23:37.731Z,599.00
2024-04-16T11:24:54.707Z,595.00
2024-04-16T11:25:37.732Z,594.00
2024-04-16T11:26:37.704Z,594.00
2024-04-16T11:27:45.039Z,593.00
2024-04-16T11:28:37.748Z,590.00
2024-04-16T11:29:37.711Z,591.00
2024-04-16T11:30:59.081Z,590.00
2024-04-16T11:31:37.723Z,586.00
2024-04-16T11:32:37.675Z,580.00
2024-04-16T11:33:58.806Z,579.00
2024-04-16T11:34:37.692Z,576.00
2024-04-16T11:35:37.647Z,574.00
2024-04-16T11:36:37.630Z,575.00
2024-04-16T11:37:38.903Z,573.00
2024-04-16T11:38:37.626Z,569.00
2024-04-16T11:39:37.636Z,566.00
2024-04-16T11:40:37.714Z,564.00
2024-04-16T11:41:37.619Z,563.00
2024-04-16T11:42:37.611Z,559.00
2024-04-16T11:43:37.809Z,556.00
2024-04-16T11:44:37.605Z,552.00
2024-04-16T11:45:37.616Z,550.00
2024-04-16T11:46:37.661Z,550.00
2024-04-16T11:47:37.636Z,548.00
2024-04-16T11:48:37.608Z,546.00
2024-04-16T11:49:37.622Z,546.00
2024-04-16T11:50:37.605Z,548.00
2024-04-16T11:51:37.605Z,547.00
2024-04-16T11:52:40.627Z,546.00
2024-04-16T11:53:37.603Z,546.00
2024-04-16T11:54:37.595Z,542.00
2024-04-16T11:55:52.557Z,539.00
2024-04-16T11:56:37.591Z,538.00
2024-04-16T11:57:37.586Z,535.00
2024-04-16T11:58:52.593Z,534.00
2024-04-16T11:59:37.578Z,535.00
2024-04-16T12:00:37.568Z,534.00
2024-04-16T12:01:37.671Z,534.00
2024-04-16T12:02:37.561Z,535.00
2024-04-16T12:03:37.645Z,534.00
2024-04-16T12:04:37.663Z,533.00
2024-04-16T12:05:37.611Z,537.00
2024-04-16T12:06:37.553Z,535.00
2024-04-16T12:07:37.555Z,534.00
2024-04-16T12:08:37.545Z,544.00
2024-04-16T12:09:37.534Z,550.00
2024-04-16T12:10:37.574Z,557.00
2024-04-16T12:11:37.614Z,557.00
2024-04-16T12:12:37.528Z,565.00
2024-04-16T12:13:37.574Z,610.00
2024-04-16T12:14:37.526Z,600.00
2024-04-16T12:15:37.532Z,587.00
2024-04-16T12:16:37.642Z,591.00
2024-04-16T12:17:37.587Z,583.00
2024-04-16T12:18:37.522Z,579.00
2024-04-16T12:19:37.546Z,596.00
2024-04-16T12:20:52.053Z,582.00
2024-04-16T12:21:37.716Z,571.00
2024-04-16T12:22:37.768Z,566.00
2024-04-16T12:23:44.553Z,562.00